<?xml version="1.0" encoding="UTF-8" standalone="no" ?><gpx xmlns="http://www.topografix.com/GPX/1/1" xmlns:gpxx="http://www.garmin.com/xmlschemas/GpxExtensions/v3" xmlns:gpxtpx="http://www.garmin.com/xmlschemas/TrackPointExtension/v1" creator="Foretrex 301" version="1.1" xmlns:xsi="http://www.w3.org/2001/XMLSchema-instance" xsi:schemaLocation="http://www.topografix.com/GPX/1/1 http://www.topografix.com/GPX/1/1/gpx.xsd http://www.garmin.com/xmlschemas/GpxExtensions/v3 http://www.garmin.com/xmlschemas/GpxExtensions/v3/GpxExtensionsv3.xsd"><metadata><link href="http://www.garmin.com"><text>Garmin International</text></link><time>2010-09-22T15:56:14Z</time></metadata><trk><name>ACTIVE LOG: 22 SEP 2010 09:59</name><trkseg><trkpt lat="52.075841" lon="-2.342930"><ele>260.17</ele><time>2010-09-22T08:59:06Z</time></trkpt><trkpt lat="52.075990" lon="-2.342840"><ele>264.98</ele><time>2010-09-22T08:59:52Z</time></trkpt><trkpt lat="52.075991" lon="-2.342837"><ele>266.42</ele><time>2010-09-22T09:01:19Z</time></trkpt><trkpt lat="52.076013" lon="-2.342762"><ele>270.75</ele><time>2010-09-22T09:01:51Z</time></trkpt><trkpt lat="52.076009" lon="-2.342698"><ele>273.15</ele><time>2010-09-22T09:02:06Z</time></trkpt><trkpt lat="52.076027" lon="-2.342606"><ele>277.48</ele><time>2010-09-22T09:02:16Z</time></trkpt><trkpt lat="52.075987" lon="-2.342493"><ele>279.40</ele><time>2010-09-22T09:02:28Z</time></trkpt><trkpt lat="52.075938" lon="-2.342395"><ele>278.92</ele><time>2010-09-22T09:02:39Z</time></trkpt><trkpt lat="52.075891" lon="-2.342302"><ele>279.88</ele><time>2010-09-22T09:02:48Z</time></trkpt><trkpt lat="52.075834" lon="-2.342275"><ele>283.25</ele><time>2010-09-22T09:03:00Z</time></trkpt><trkpt lat="52.075761" lon="-2.342154"><ele>285.65</ele><time>2010-09-22T09:03:12Z</time></trkpt><trkpt lat="52.075748" lon="-2.342114"><ele>287.57</ele><time>2010-09-22T09:03:15Z</time></trkpt><trkpt lat="52.075710" lon="-2.341990"><ele>293.34</ele><time>2010-09-22T09:03:26Z</time></trkpt><trkpt lat="52.075671" lon="-2.341914"><ele>295.74</ele><time>2010-09-22T09:03:32Z</time></trkpt><trkpt lat="52.075647" lon="-2.341883"><ele>297.18</ele><time>2010-09-22T09:03:35Z</time></trkpt><trkpt lat="52.075533" lon="-2.341745"><ele>301.99</ele><time>2010-09-22T09:03:49Z</time></trkpt><trkpt lat="52.075489" lon="-2.341700"><ele>303.43</ele><time>2010-09-22T09:03:54Z</time></trkpt><trkpt lat="52.075459" lon="-2.341676"><ele>303.91</ele><time>2010-09-22T09:03:59Z</time></trkpt><trkpt lat="52.075539" lon="-2.341682"><ele>304.39</ele><time>2010-09-22T09:04:13Z</time></trkpt><trkpt lat="52.075611" lon="-2.341648"><ele>306.32</ele><time>2010-09-22T09:04:26Z</time></trkpt><trkpt lat="52.075615" lon="-2.341629"><ele>306.80</ele><time>2010-09-22T09:04:28Z</time></trkpt><trkpt lat="52.075546" lon="-2.341510"><ele>307.76</ele><time>2010-09-22T09:04:42Z</time></trkpt><trkpt lat="52.075544" lon="-2.341479"><ele>305.84</ele><time>2010-09-22T09:05:05Z</time></trkpt><trkpt lat="52.075440" lon="-2.341385"><ele>307.76</ele><time>2010-09-22T09:05:15Z</time></trkpt><trkpt lat="52.075418" lon="-2.341352"><ele>308.24</ele><time>2010-09-22T09:05:18Z</time></trkpt><trkpt lat="52.075306" lon="-2.341250"><ele>307.28</ele><time>2010-09-22T09:05:32Z</time></trkpt><trkpt lat="52.075172" lon="-2.341121"><ele>309.68</ele><time>2010-09-22T09:05:48Z</time></trkpt><trkpt lat="52.075101" lon="-2.341012"><ele>312.09</ele><time>2010-09-22T09:06:02Z</time></trkpt><trkpt lat="52.075057" lon="-2.340931"><ele>314.01</ele><time>2010-09-22T09:06:10Z</time></trkpt><trkpt lat="52.075033" lon="-2.340901"><ele>314.97</ele><time>2010-09-22T09:06:13Z</time></trkpt><trkpt lat="52.074894" lon="-2.340694"><ele>319.78</ele><time>2010-09-22T09:06:31Z</time></trkpt><trkpt lat="52.074880" lon="-2.340586"><ele>323.62</ele><time>2010-09-22T09:06:46Z</time></trkpt><trkpt lat="52.074863" lon="-2.340547"><ele>324.58</ele><time>2010-09-22T09:06:57Z</time></trkpt><trkpt lat="52.074859" lon="-2.340546"><ele>324.10</ele><time>2010-09-22T09:07:35Z</time></trkpt><trkpt lat="52.074860" lon="-2.340549"><ele>324.10</ele><time>2010-09-22T09:08:15Z</time></trkpt><trkpt lat="52.074858" lon="-2.340552"><ele>324.10</ele><time>2010-09-22T09:08:55Z</time></trkpt><trkpt lat="52.074878" lon="-2.340444"><ele>325.06</ele><time>2010-09-22T09:09:19Z</time></trkpt><trkpt lat="52.074919" lon="-2.340243"><ele>330.83</ele><time>2010-09-22T09:09:38Z</time></trkpt><trkpt lat="52.074983" lon="-2.340087"><ele>336.12</ele><time>2010-09-22T09:09:52Z</time></trkpt><trkpt lat="52.075000" lon="-2.340053"><ele>336.60</ele><time>2010-09-22T09:09:55Z</time></trkpt><trkpt lat="52.075076" lon="-2.339834"><ele>340.92</ele><time>2010-09-22T09:10:12Z</time></trkpt><trkpt lat="52.075120" lon="-2.339690"><ele>341.89</ele><time>2010-09-22T09:10:25Z</time></trkpt><trkpt lat="52.075159" lon="-2.339538"><ele>340.92</ele><time>2010-09-22T09:10:40Z</time></trkpt><trkpt lat="52.075156" lon="-2.339538"><ele>340.44</ele><time>2010-09-22T09:11:11Z</time></trkpt><trkpt lat="52.075155" lon="-2.339485"><ele>340.44</ele><time>2010-09-22T09:11:24Z</time></trkpt><trkpt lat="52.075154" lon="-2.339474"><ele>340.44</ele><time>2010-09-22T09:12:01Z</time></trkpt><trkpt lat="52.075129" lon="-2.339484"><ele>340.92</ele><time>2010-09-22T09:12:10Z</time></trkpt><trkpt lat="52.074972" lon="-2.339472"><ele>342.85</ele><time>2010-09-22T09:12:25Z</time></trkpt><trkpt lat="52.074859" lon="-2.339442"><ele>345.73</ele><time>2010-09-22T09:12:37Z</time></trkpt><trkpt lat="52.074722" lon="-2.339388"><ele>346.69</ele><time>2010-09-22T09:12:51Z</time></trkpt><trkpt lat="52.074627" lon="-2.339335"><ele>347.17</ele><time>2010-09-22T09:13:04Z</time></trkpt><trkpt lat="52.074478" lon="-2.339308"><ele>345.73</ele><time>2010-09-22T09:13:20Z</time></trkpt><trkpt lat="52.074429" lon="-2.339312"><ele>345.25</ele><time>2010-09-22T09:13:25Z</time></trkpt><trkpt lat="52.074293" lon="-2.339293"><ele>344.29</ele><time>2010-09-22T09:13:41Z</time></trkpt><trkpt lat="52.074155" lon="-2.339312"><ele>344.77</ele><time>2010-09-22T09:13:57Z</time></trkpt><trkpt lat="52.074013" lon="-2.339323"><ele>344.29</ele><time>2010-09-22T09:14:13Z</time></trkpt><trkpt lat="52.073856" lon="-2.339325"><ele>343.33</ele><time>2010-09-22T09:14:29Z</time></trkpt><trkpt lat="52.073705" lon="-2.339331"><ele>341.89</ele><time>2010-09-22T09:14:45Z</time></trkpt><trkpt lat="52.073492" lon="-2.339353"><ele>340.92</ele><time>2010-09-22T09:15:08Z</time></trkpt><trkpt lat="52.073322" lon="-2.339407"><ele>336.60</ele><time>2010-09-22T09:15:26Z</time></trkpt><trkpt lat="52.073191" lon="-2.339450"><ele>335.16</ele><time>2010-09-22T09:15:40Z</time></trkpt><trkpt lat="52.073100" lon="-2.339455"><ele>332.75</ele><time>2010-09-22T09:15:58Z</time></trkpt><trkpt lat="52.072949" lon="-2.339500"><ele>327.95</ele><time>2010-09-22T09:16:18Z</time></trkpt><trkpt lat="52.072845" lon="-2.339539"><ele>325.54</ele><time>2010-09-22T09:16:35Z</time></trkpt><trkpt lat="52.072794" lon="-2.339586"><ele>325.06</ele><time>2010-09-22T09:16:52Z</time></trkpt><trkpt lat="52.072665" lon="-2.339638"><ele>321.22</ele><time>2010-09-22T09:17:10Z</time></trkpt><trkpt lat="52.072555" lon="-2.339707"><ele>317.85</ele><time>2010-09-22T09:17:28Z</time></trkpt><trkpt lat="52.072441" lon="-2.339788"><ele>314.49</ele><time>2010-09-22T09:17:45Z</time></trkpt><trkpt lat="52.072261" lon="-2.339839"><ele>309.20</ele><time>2010-09-22T09:18:09Z</time></trkpt><trkpt lat="52.072146" lon="-2.339877"><ele>306.32</ele><time>2010-09-22T09:18:26Z</time></trkpt><trkpt lat="52.072044" lon="-2.339891"><ele>302.95</ele><time>2010-09-22T09:18:41Z</time></trkpt><trkpt lat="52.071879" lon="-2.339914"><ele>297.67</ele><time>2010-09-22T09:19:00Z</time></trkpt><trkpt lat="52.071661" lon="-2.339964"><ele>295.26</ele><time>2010-09-22T09:19:20Z</time></trkpt><trkpt lat="52.071431" lon="-2.339972"><ele>294.78</ele><time>2010-09-22T09:19:39Z</time></trkpt><trkpt lat="52.071193" lon="-2.339902"><ele>293.82</ele><time>2010-09-22T09:20:00Z</time></trkpt><trkpt lat="52.070994" lon="-2.339863"><ele>295.26</ele><time>2010-09-22T09:20:18Z</time></trkpt><trkpt lat="52.070806" lon="-2.339798"><ele>295.74</ele><time>2010-09-22T09:20:36Z</time></trkpt><trkpt lat="52.070500" lon="-2.339757"><ele>293.82</ele><time>2010-09-22T09:21:01Z</time></trkpt><trkpt lat="52.070317" lon="-2.339700"><ele>293.82</ele><time>2010-09-22T09:21:18Z</time></trkpt><trkpt lat="52.070158" lon="-2.339638"><ele>294.78</ele><time>2010-09-22T09:21:34Z</time></trkpt><trkpt lat="52.070064" lon="-2.339599"><ele>298.15</ele><time>2010-09-22T09:21:48Z</time></trkpt><trkpt lat="52.069985" lon="-2.339558"><ele>301.51</ele><time>2010-09-22T09:21:59Z</time></trkpt><trkpt lat="52.069901" lon="-2.339524"><ele>304.88</ele><time>2010-09-22T09:22:11Z</time></trkpt><trkpt lat="52.069799" lon="-2.339490"><ele>307.28</ele><time>2010-09-22T09:22:24Z</time></trkpt><trkpt lat="52.069685" lon="-2.339435"><ele>309.68</ele><time>2010-09-22T09:22:38Z</time></trkpt><trkpt lat="52.069616" lon="-2.339360"><ele>312.57</ele><time>2010-09-22T09:22:52Z</time></trkpt><trkpt lat="52.069613" lon="-2.339359"><ele>311.60</ele><time>2010-09-22T09:23:15Z</time></trkpt><trkpt lat="52.069606" lon="-2.339351"><ele>311.60</ele><time>2010-09-22T09:23:48Z</time></trkpt><trkpt lat="52.069548" lon="-2.339353"><ele>310.64</ele><time>2010-09-22T09:24:18Z</time></trkpt><trkpt lat="52.069395" lon="-2.339402"><ele>309.20</ele><time>2010-09-22T09:24:35Z</time></trkpt><trkpt lat="52.069217" lon="-2.339401"><ele>306.32</ele><time>2010-09-22T09:24:53Z</time></trkpt><trkpt lat="52.069127" lon="-2.339419"><ele>306.32</ele><time>2010-09-22T09:25:04Z</time></trkpt><trkpt lat="52.068936" lon="-2.339510"><ele>304.39</ele><time>2010-09-22T09:25:23Z</time></trkpt><trkpt lat="52.068761" lon="-2.339552"><ele>303.43</ele><time>2010-09-22T09:25:43Z</time></trkpt><trkpt lat="52.068603" lon="-2.339647"><ele>300.55</ele><time>2010-09-22T09:26:00Z</time></trkpt><trkpt lat="52.068411" lon="-2.339724"><ele>296.70</ele><time>2010-09-22T09:26:21Z</time></trkpt><trkpt lat="52.068225" lon="-2.339792"><ele>294.30</ele><time>2010-09-22T09:26:40Z</time></trkpt><trkpt lat="52.068093" lon="-2.339866"><ele>290.94</ele><time>2010-09-22T09:26:59Z</time></trkpt><trkpt lat="52.067930" lon="-2.339979"><ele>287.57</ele><time>2010-09-22T09:27:19Z</time></trkpt><trkpt lat="52.067710" lon="-2.340094"><ele>281.80</ele><time>2010-09-22T09:27:44Z</time></trkpt><trkpt lat="52.067536" lon="-2.340187"><ele>277.96</ele><time>2010-09-22T09:28:05Z</time></trkpt><trkpt lat="52.067386" lon="-2.340271"><ele>276.04</ele><time>2010-09-22T09:28:23Z</time></trkpt><trkpt lat="52.067152" lon="-2.340366"><ele>270.75</ele><time>2010-09-22T09:28:49Z</time></trkpt><trkpt lat="52.067027" lon="-2.340417"><ele>268.35</ele><time>2010-09-22T09:29:06Z</time></trkpt><trkpt lat="52.066871" lon="-2.340473"><ele>265.94</ele><time>2010-09-22T09:29:24Z</time></trkpt><trkpt lat="52.066658" lon="-2.340526"><ele>263.54</ele><time>2010-09-22T09:29:45Z</time></trkpt><trkpt lat="52.066450" lon="-2.340578"><ele>262.10</ele><time>2010-09-22T09:30:04Z</time></trkpt><trkpt lat="52.066243" lon="-2.340604"><ele>262.10</ele><time>2010-09-22T09:30:23Z</time></trkpt><trkpt lat="52.066063" lon="-2.340648"><ele>260.65</ele><time>2010-09-22T09:30:40Z</time></trkpt><trkpt lat="52.065896" lon="-2.340736"><ele>259.21</ele><time>2010-09-22T09:30:58Z</time></trkpt><trkpt lat="52.065758" lon="-2.340765"><ele>260.65</ele><time>2010-09-22T09:31:13Z</time></trkpt><trkpt lat="52.065584" lon="-2.340824"><ele>261.14</ele><time>2010-09-22T09:31:30Z</time></trkpt><trkpt lat="52.065440" lon="-2.340849"><ele>263.54</ele><time>2010-09-22T09:31:45Z</time></trkpt><trkpt lat="52.065275" lon="-2.340940"><ele>262.58</ele><time>2010-09-22T09:32:01Z</time></trkpt><trkpt lat="52.065107" lon="-2.341043"><ele>263.54</ele><time>2010-09-22T09:32:18Z</time></trkpt><trkpt lat="52.064949" lon="-2.341119"><ele>266.42</ele><time>2010-09-22T09:32:35Z</time></trkpt><trkpt lat="52.064782" lon="-2.341198"><ele>268.83</ele><time>2010-09-22T09:32:53Z</time></trkpt><trkpt lat="52.064599" lon="-2.341299"><ele>267.86</ele><time>2010-09-22T09:33:15Z</time></trkpt><trkpt lat="52.064438" lon="-2.341382"><ele>265.94</ele><time>2010-09-22T09:33:31Z</time></trkpt><trkpt lat="52.064304" lon="-2.341425"><ele>264.98</ele><time>2010-09-22T09:33:47Z</time></trkpt><trkpt lat="52.064134" lon="-2.341555"><ele>268.35</ele><time>2010-09-22T09:34:05Z</time></trkpt><trkpt lat="52.064021" lon="-2.341681"><ele>268.83</ele><time>2010-09-22T09:34:19Z</time></trkpt><trkpt lat="52.063864" lon="-2.341809"><ele>267.86</ele><time>2010-09-22T09:34:36Z</time></trkpt><trkpt lat="52.063735" lon="-2.341968"><ele>267.38</ele><time>2010-09-22T09:34:55Z</time></trkpt><trkpt lat="52.063608" lon="-2.342134"><ele>263.06</ele><time>2010-09-22T09:35:16Z</time></trkpt><trkpt lat="52.063491" lon="-2.342267"><ele>260.17</ele><time>2010-09-22T09:35:35Z</time></trkpt><trkpt lat="52.063490" lon="-2.342281"><ele>259.69</ele><time>2010-09-22T09:36:05Z</time></trkpt><trkpt lat="52.063465" lon="-2.342321"><ele>258.25</ele><time>2010-09-22T09:36:17Z</time></trkpt><trkpt lat="52.063462" lon="-2.342323"><ele>258.73</ele><time>2010-09-22T09:36:38Z</time></trkpt><trkpt lat="52.063330" lon="-2.342422"><ele>255.85</ele><time>2010-09-22T09:36:54Z</time></trkpt><trkpt lat="52.063300" lon="-2.342505"><ele>257.77</ele><time>2010-09-22T09:37:07Z</time></trkpt><trkpt lat="52.063299" lon="-2.342496"><ele>258.25</ele><time>2010-09-22T09:37:42Z</time></trkpt><trkpt lat="52.063258" lon="-2.342506"><ele>257.77</ele><time>2010-09-22T09:37:52Z</time></trkpt><trkpt lat="52.063182" lon="-2.342540"><ele>258.25</ele><time>2010-09-22T09:38:10Z</time></trkpt><trkpt lat="52.063079" lon="-2.342658"><ele>257.77</ele><time>2010-09-22T09:38:23Z</time></trkpt><trkpt lat="52.063002" lon="-2.342818"><ele>257.29</ele><time>2010-09-22T09:38:39Z</time></trkpt><trkpt lat="52.063000" lon="-2.342921"><ele>259.21</ele><time>2010-09-22T09:38:52Z</time></trkpt><trkpt lat="52.063011" lon="-2.342955"><ele>260.17</ele><time>2010-09-22T09:39:17Z</time></trkpt><trkpt lat="52.062934" lon="-2.342959"><ele>257.77</ele><time>2010-09-22T09:39:34Z</time></trkpt><trkpt lat="52.062879" lon="-2.342978"><ele>258.25</ele><time>2010-09-22T09:39:42Z</time></trkpt><trkpt lat="52.062822" lon="-2.343065"><ele>260.17</ele><time>2010-09-22T09:39:57Z</time></trkpt><trkpt lat="52.062786" lon="-2.343092"><ele>258.25</ele><time>2010-09-22T09:40:20Z</time></trkpt><trkpt lat="52.062697" lon="-2.343178"><ele>259.21</ele><time>2010-09-22T09:40:35Z</time></trkpt><trkpt lat="52.062603" lon="-2.343243"><ele>262.10</ele><time>2010-09-22T09:40:50Z</time></trkpt><trkpt lat="52.062535" lon="-2.343344"><ele>264.02</ele><time>2010-09-22T09:41:03Z</time></trkpt><trkpt lat="52.062453" lon="-2.343428"><ele>265.46</ele><time>2010-09-22T09:41:16Z</time></trkpt><trkpt lat="52.062446" lon="-2.343496"><ele>267.38</ele><time>2010-09-22T09:41:22Z</time></trkpt><trkpt lat="52.062428" lon="-2.343639"><ele>268.83</ele><time>2010-09-22T09:41:30Z</time></trkpt><trkpt lat="52.062433" lon="-2.343685"><ele>268.83</ele><time>2010-09-22T09:41:33Z</time></trkpt><trkpt lat="52.062430" lon="-2.343716"><ele>269.31</ele><time>2010-09-22T09:41:35Z</time></trkpt><trkpt lat="52.062433" lon="-2.343886"><ele>269.31</ele><time>2010-09-22T09:41:44Z</time></trkpt><trkpt lat="52.062471" lon="-2.344058"><ele>269.31</ele><time>2010-09-22T09:41:57Z</time></trkpt><trkpt lat="52.062487" lon="-2.344172"><ele>268.35</ele><time>2010-09-22T09:42:10Z</time></trkpt><trkpt lat="52.062500" lon="-2.344271"><ele>266.90</ele><time>2010-09-22T09:43:02Z</time></trkpt><trkpt lat="52.062525" lon="-2.344277"><ele>265.94</ele><time>2010-09-22T09:43:42Z</time></trkpt><trkpt lat="52.062526" lon="-2.344281"><ele>265.46</ele><time>2010-09-22T09:43:49Z</time></trkpt><trkpt lat="52.062590" lon="-2.344483"><ele>264.98</ele><time>2010-09-22T09:44:05Z</time></trkpt><trkpt lat="52.062656" lon="-2.344675"><ele>263.06</ele><time>2010-09-22T09:44:19Z</time></trkpt><trkpt lat="52.062700" lon="-2.344930"><ele>260.17</ele><time>2010-09-22T09:44:34Z</time></trkpt><trkpt lat="52.062651" lon="-2.344991"><ele>263.54</ele><time>2010-09-22T09:44:49Z</time></trkpt><trkpt lat="52.062678" lon="-2.345057"><ele>263.54</ele><time>2010-09-22T09:45:14Z</time></trkpt><trkpt lat="52.062683" lon="-2.345186"><ele>262.10</ele><time>2010-09-22T09:45:26Z</time></trkpt><trkpt lat="52.062701" lon="-2.345462"><ele>255.37</ele><time>2010-09-22T09:45:48Z</time></trkpt><trkpt lat="52.062728" lon="-2.345621"><ele>251.52</ele><time>2010-09-22T09:46:05Z</time></trkpt><trkpt lat="52.062714" lon="-2.345823"><ele>246.23</ele><time>2010-09-22T09:46:28Z</time></trkpt><trkpt lat="52.062693" lon="-2.346026"><ele>244.31</ele><time>2010-09-22T09:46:48Z</time></trkpt><trkpt lat="52.062682" lon="-2.346168"><ele>241.91</ele><time>2010-09-22T09:47:01Z</time></trkpt><trkpt lat="52.062520" lon="-2.346412"><ele>242.87</ele><time>2010-09-22T09:47:21Z</time></trkpt><trkpt lat="52.062454" lon="-2.346568"><ele>242.39</ele><time>2010-09-22T09:47:36Z</time></trkpt><trkpt lat="52.062412" lon="-2.346644"><ele>242.87</ele><time>2010-09-22T09:47:44Z</time></trkpt><trkpt lat="52.062246" lon="-2.346754"><ele>245.27</ele><time>2010-09-22T09:48:00Z</time></trkpt><trkpt lat="52.062088" lon="-2.346831"><ele>243.83</ele><time>2010-09-22T09:48:14Z</time></trkpt><trkpt lat="52.061924" lon="-2.346927"><ele>248.16</ele><time>2010-09-22T09:48:31Z</time></trkpt><trkpt lat="52.061817" lon="-2.346933"><ele>249.12</ele><time>2010-09-22T09:48:45Z</time></trkpt><trkpt lat="52.061809" lon="-2.346926"><ele>249.12</ele><time>2010-09-22T09:48:46Z</time></trkpt><trkpt lat="52.061752" lon="-2.346932"><ele>252.00</ele><time>2010-09-22T09:48:51Z</time></trkpt><trkpt lat="52.061660" lon="-2.346988"><ele>252.96</ele><time>2010-09-22T09:49:00Z</time></trkpt><trkpt lat="52.061520" lon="-2.347033"><ele>252.96</ele><time>2010-09-22T09:49:17Z</time></trkpt><trkpt lat="52.061514" lon="-2.347101"><ele>251.04</ele><time>2010-09-22T09:49:31Z</time></trkpt><trkpt lat="52.061533" lon="-2.347134"><ele>248.64</ele><time>2010-09-22T09:49:52Z</time></trkpt><trkpt lat="52.061517" lon="-2.347133"><ele>250.56</ele><time>2010-09-22T09:50:27Z</time></trkpt><trkpt lat="52.061515" lon="-2.347198"><ele>250.56</ele><time>2010-09-22T09:50:48Z</time></trkpt><trkpt lat="52.061430" lon="-2.347229"><ele>252.48</ele><time>2010-09-22T09:51:00Z</time></trkpt><trkpt lat="52.061303" lon="-2.347174"><ele>252.96</ele><time>2010-09-22T09:51:21Z</time></trkpt><trkpt lat="52.061219" lon="-2.347168"><ele>258.73</ele><time>2010-09-22T09:51:35Z</time></trkpt><trkpt lat="52.061170" lon="-2.347303"><ele>264.50</ele><time>2010-09-22T09:51:49Z</time></trkpt><trkpt lat="52.061180" lon="-2.347435"><ele>262.58</ele><time>2010-09-22T09:52:01Z</time></trkpt><trkpt lat="52.061165" lon="-2.347442"><ele>262.10</ele><time>2010-09-22T09:52:13Z</time></trkpt><trkpt lat="52.061058" lon="-2.347520"><ele>261.14</ele><time>2010-09-22T09:52:27Z</time></trkpt><trkpt lat="52.060952" lon="-2.347544"><ele>264.02</ele><time>2010-09-22T09:52:46Z</time></trkpt><trkpt lat="52.060938" lon="-2.347521"><ele>264.50</ele><time>2010-09-22T09:53:06Z</time></trkpt><trkpt lat="52.060794" lon="-2.347526"><ele>264.50</ele><time>2010-09-22T09:53:29Z</time></trkpt><trkpt lat="52.060656" lon="-2.347574"><ele>264.50</ele><time>2010-09-22T09:53:44Z</time></trkpt><trkpt lat="52.060561" lon="-2.347594"><ele>267.86</ele><time>2010-09-22T09:53:56Z</time></trkpt><trkpt lat="52.060471" lon="-2.347603"><ele>271.71</ele><time>2010-09-22T09:54:12Z</time></trkpt><trkpt lat="52.060381" lon="-2.347636"><ele>272.67</ele><time>2010-09-22T09:54:27Z</time></trkpt><trkpt lat="52.060282" lon="-2.347684"><ele>275.56</ele><time>2010-09-22T09:54:41Z</time></trkpt><trkpt lat="52.060187" lon="-2.347751"><ele>278.44</ele><time>2010-09-22T09:54:54Z</time></trkpt><trkpt lat="52.060143" lon="-2.347768"><ele>279.88</ele><time>2010-09-22T09:55:09Z</time></trkpt><trkpt lat="52.060114" lon="-2.347830"><ele>279.40</ele><time>2010-09-22T09:55:25Z</time></trkpt><trkpt lat="52.060131" lon="-2.347873"><ele>278.92</ele><time>2010-09-22T09:55:47Z</time></trkpt><trkpt lat="52.060156" lon="-2.347917"><ele>277.96</ele><time>2010-09-22T09:56:21Z</time></trkpt><trkpt lat="52.060161" lon="-2.347913"><ele>277.96</ele><time>2010-09-22T09:56:55Z</time></trkpt><trkpt lat="52.060144" lon="-2.347915"><ele>277.96</ele><time>2010-09-22T09:57:34Z</time></trkpt><trkpt lat="52.060148" lon="-2.347930"><ele>275.56</ele><time>2010-09-22T09:57:46Z</time></trkpt><trkpt lat="52.060124" lon="-2.347897"><ele>277.00</ele><time>2010-09-22T09:57:56Z</time></trkpt><trkpt lat="52.060153" lon="-2.347898"><ele>277.00</ele><time>2010-09-22T09:58:07Z</time></trkpt><trkpt lat="52.060161" lon="-2.347911"><ele>276.52</ele><time>2010-09-22T09:58:33Z</time></trkpt><trkpt lat="52.060181" lon="-2.347909"><ele>275.56</ele><time>2010-09-22T09:59:13Z</time></trkpt><trkpt lat="52.060180" lon="-2.347955"><ele>277.96</ele><time>2010-09-22T10:01:49Z</time></trkpt><trkpt lat="52.060178" lon="-2.347924"><ele>277.96</ele><time>2010-09-22T10:02:31Z</time></trkpt><trkpt lat="52.060176" lon="-2.347920"><ele>277.00</ele><time>2010-09-22T10:03:30Z</time></trkpt><trkpt lat="52.060174" lon="-2.347914"><ele>277.48</ele><time>2010-09-22T10:05:22Z</time></trkpt><trkpt lat="52.060159" lon="-2.347923"><ele>276.04</ele><time>2010-09-22T10:06:23Z</time></trkpt><trkpt lat="52.060164" lon="-2.347901"><ele>278.92</ele><time>2010-09-22T10:06:58Z</time></trkpt><trkpt lat="52.060152" lon="-2.347858"><ele>278.44</ele><time>2010-09-22T10:07:09Z</time></trkpt><trkpt lat="52.060124" lon="-2.347857"><ele>276.04</ele><time>2010-09-22T10:07:30Z</time></trkpt><trkpt lat="52.060135" lon="-2.347892"><ele>276.52</ele><time>2010-09-22T10:07:51Z</time></trkpt><trkpt lat="52.060138" lon="-2.347914"><ele>277.48</ele><time>2010-09-22T10:08:15Z</time></trkpt><trkpt lat="52.060139" lon="-2.347911"><ele>276.52</ele><time>2010-09-22T10:08:33Z</time></trkpt><trkpt lat="52.060139" lon="-2.347908"><ele>276.04</ele><time>2010-09-22T10:08:52Z</time></trkpt><trkpt lat="52.060140" lon="-2.347929"><ele>277.00</ele><time>2010-09-22T10:09:44Z</time></trkpt><trkpt lat="52.060138" lon="-2.347933"><ele>277.48</ele><time>2010-09-22T10:09:59Z</time></trkpt><trkpt lat="52.060140" lon="-2.347917"><ele>278.44</ele><time>2010-09-22T10:10:08Z</time></trkpt><trkpt lat="52.060172" lon="-2.347926"><ele>280.36</ele><time>2010-09-22T10:10:14Z</time></trkpt><trkpt lat="52.060113" lon="-2.348036"><ele>284.21</ele><time>2010-09-22T10:10:26Z</time></trkpt><trkpt lat="52.059876" lon="-2.348351"><ele>285.65</ele><time>2010-09-22T10:10:48Z</time></trkpt><trkpt lat="52.059637" lon="-2.348508"><ele>288.53</ele><time>2010-09-22T10:11:07Z</time></trkpt><trkpt lat="52.059412" lon="-2.348750"><ele>294.78</ele><time>2010-09-22T10:11:29Z</time></trkpt><trkpt lat="52.059245" lon="-2.349035"><ele>299.59</ele><time>2010-09-22T10:11:50Z</time></trkpt><trkpt lat="52.059192" lon="-2.349290"><ele>301.51</ele><time>2010-09-22T10:12:05Z</time></trkpt><trkpt lat="52.059175" lon="-2.349399"><ele>301.99</ele><time>2010-09-22T10:12:12Z</time></trkpt><trkpt lat="52.059053" lon="-2.349581"><ele>304.39</ele><time>2010-09-22T10:12:27Z</time></trkpt><trkpt lat="52.058944" lon="-2.349841"><ele>308.24</ele><time>2010-09-22T10:12:45Z</time></trkpt><trkpt lat="52.058871" lon="-2.350086"><ele>313.05</ele><time>2010-09-22T10:13:03Z</time></trkpt><trkpt lat="52.058810" lon="-2.350132"><ele>314.49</ele><time>2010-09-22T10:13:23Z</time></trkpt><trkpt lat="52.058802" lon="-2.350146"><ele>314.49</ele><time>2010-09-22T10:13:32Z</time></trkpt><trkpt lat="52.058791" lon="-2.350243"><ele>316.41</ele><time>2010-09-22T10:13:37Z</time></trkpt><trkpt lat="52.058741" lon="-2.350422"><ele>322.18</ele><time>2010-09-22T10:13:57Z</time></trkpt><trkpt lat="52.058748" lon="-2.350431"><ele>323.62</ele><time>2010-09-22T10:14:41Z</time></trkpt><trkpt lat="52.058696" lon="-2.350492"><ele>322.66</ele><time>2010-09-22T10:15:00Z</time></trkpt><trkpt lat="52.058650" lon="-2.350593"><ele>324.58</ele><time>2010-09-22T10:15:11Z</time></trkpt><trkpt lat="52.058638" lon="-2.350679"><ele>325.06</ele><time>2010-09-22T10:15:28Z</time></trkpt><trkpt lat="52.058571" lon="-2.350964"><ele>328.43</ele><time>2010-09-22T10:15:48Z</time></trkpt><trkpt lat="52.058554" lon="-2.350973"><ele>328.43</ele><time>2010-09-22T10:16:14Z</time></trkpt><trkpt lat="52.058530" lon="-2.351037"><ele>331.79</ele><time>2010-09-22T10:16:44Z</time></trkpt><trkpt lat="52.058446" lon="-2.351156"><ele>335.64</ele><time>2010-09-22T10:17:00Z</time></trkpt><trkpt lat="52.058428" lon="-2.351175"><ele>336.60</ele><time>2010-09-22T10:17:18Z</time></trkpt><trkpt lat="52.058393" lon="-2.351273"><ele>338.04</ele><time>2010-09-22T10:17:33Z</time></trkpt><trkpt lat="52.058350" lon="-2.351394"><ele>340.44</ele><time>2010-09-22T10:17:48Z</time></trkpt><trkpt lat="52.058312" lon="-2.351518"><ele>341.41</ele><time>2010-09-22T10:18:07Z</time></trkpt><trkpt lat="52.058242" lon="-2.351739"><ele>340.44</ele><time>2010-09-22T10:18:23Z</time></trkpt><trkpt lat="52.058161" lon="-2.351903"><ele>340.92</ele><time>2010-09-22T10:18:37Z</time></trkpt><trkpt lat="52.058147" lon="-2.351927"><ele>341.41</ele><time>2010-09-22T10:18:54Z</time></trkpt><trkpt lat="52.058118" lon="-2.351931"><ele>341.41</ele><time>2010-09-22T10:19:08Z</time></trkpt><trkpt lat="52.058106" lon="-2.351847"><ele>342.37</ele><time>2010-09-22T10:19:46Z</time></trkpt><trkpt lat="52.058102" lon="-2.351816"><ele>341.41</ele><time>2010-09-22T10:19:59Z</time></trkpt><trkpt lat="52.058103" lon="-2.351766"><ele>342.85</ele><time>2010-09-22T10:20:32Z</time></trkpt><trkpt lat="52.058154" lon="-2.351595"><ele>343.33</ele><time>2010-09-22T10:20:45Z</time></trkpt><trkpt lat="52.058197" lon="-2.351430"><ele>342.85</ele><time>2010-09-22T10:20:59Z</time></trkpt><trkpt lat="52.058205" lon="-2.351410"><ele>340.92</ele><time>2010-09-22T10:21:33Z</time></trkpt><trkpt lat="52.058201" lon="-2.351415"><ele>340.92</ele><time>2010-09-22T10:21:36Z</time></trkpt><trkpt lat="52.058192" lon="-2.351446"><ele>339.48</ele><time>2010-09-22T10:21:49Z</time></trkpt><trkpt lat="52.058195" lon="-2.351439"><ele>339.48</ele><time>2010-09-22T10:22:01Z</time></trkpt><trkpt lat="52.058210" lon="-2.351414"><ele>338.04</ele><time>2010-09-22T10:22:14Z</time></trkpt><trkpt lat="52.058199" lon="-2.351421"><ele>338.52</ele><time>2010-09-22T10:22:26Z</time></trkpt><trkpt lat="52.058179" lon="-2.351438"><ele>340.44</ele><time>2010-09-22T10:22:49Z</time></trkpt><trkpt lat="52.058181" lon="-2.351449"><ele>340.92</ele><time>2010-09-22T10:23:17Z</time></trkpt><trkpt lat="52.058110" lon="-2.351616"><ele>340.44</ele><time>2010-09-22T10:23:34Z</time></trkpt><trkpt lat="52.058088" lon="-2.351849"><ele>339.96</ele><time>2010-09-22T10:23:49Z</time></trkpt><trkpt lat="52.058039" lon="-2.351929"><ele>337.08</ele><time>2010-09-22T10:24:06Z</time></trkpt><trkpt lat="52.057992" lon="-2.351933"><ele>336.12</ele><time>2010-09-22T10:24:14Z</time></trkpt><trkpt lat="52.057828" lon="-2.352065"><ele>334.20</ele><time>2010-09-22T10:24:35Z</time></trkpt><trkpt lat="52.057717" lon="-2.352160"><ele>331.31</ele><time>2010-09-22T10:24:51Z</time></trkpt><trkpt lat="52.057541" lon="-2.352233"><ele>329.39</ele><time>2010-09-22T10:25:12Z</time></trkpt><trkpt lat="52.057372" lon="-2.352324"><ele>327.95</ele><time>2010-09-22T10:25:30Z</time></trkpt><trkpt lat="52.057231" lon="-2.352356"><ele>325.54</ele><time>2010-09-22T10:25:48Z</time></trkpt><trkpt lat="52.057037" lon="-2.352377"><ele>322.18</ele><time>2010-09-22T10:26:09Z</time></trkpt><trkpt lat="52.056919" lon="-2.352377"><ele>321.22</ele><time>2010-09-22T10:26:21Z</time></trkpt><trkpt lat="52.056708" lon="-2.352302"><ele>319.30</ele><time>2010-09-22T10:26:42Z</time></trkpt><trkpt lat="52.056537" lon="-2.352221"><ele>319.78</ele><time>2010-09-22T10:26:58Z</time></trkpt><trkpt lat="52.056432" lon="-2.352155"><ele>318.33</ele><time>2010-09-22T10:27:11Z</time></trkpt><trkpt lat="52.056342" lon="-2.352094"><ele>315.93</ele><time>2010-09-22T10:27:28Z</time></trkpt><trkpt lat="52.056187" lon="-2.352072"><ele>316.41</ele><time>2010-09-22T10:27:44Z</time></trkpt><trkpt lat="52.055984" lon="-2.352036"><ele>316.89</ele><time>2010-09-22T10:28:03Z</time></trkpt><trkpt lat="52.055819" lon="-2.352003"><ele>317.85</ele><time>2010-09-22T10:28:19Z</time></trkpt><trkpt lat="52.055761" lon="-2.351991"><ele>317.37</ele><time>2010-09-22T10:28:25Z</time></trkpt><trkpt lat="52.055597" lon="-2.351934"><ele>317.85</ele><time>2010-09-22T10:28:42Z</time></trkpt><trkpt lat="52.055447" lon="-2.351882"><ele>320.26</ele><time>2010-09-22T10:28:57Z</time></trkpt><trkpt lat="52.055303" lon="-2.351862"><ele>322.66</ele><time>2010-09-22T10:29:14Z</time></trkpt><trkpt lat="52.055182" lon="-2.351825"><ele>325.06</ele><time>2010-09-22T10:29:30Z</time></trkpt><trkpt lat="52.055130" lon="-2.351799"><ele>326.50</ele><time>2010-09-22T10:29:43Z</time></trkpt><trkpt lat="52.055034" lon="-2.351737"><ele>327.47</ele><time>2010-09-22T10:29:56Z</time></trkpt><trkpt lat="52.054929" lon="-2.351660"><ele>329.39</ele><time>2010-09-22T10:30:09Z</time></trkpt><trkpt lat="52.054821" lon="-2.351556"><ele>330.35</ele><time>2010-09-22T10:30:23Z</time></trkpt><trkpt lat="52.054701" lon="-2.351453"><ele>330.83</ele><time>2010-09-22T10:30:38Z</time></trkpt><trkpt lat="52.054582" lon="-2.351363"><ele>329.39</ele><time>2010-09-22T10:30:54Z</time></trkpt><trkpt lat="52.054442" lon="-2.351231"><ele>326.02</ele><time>2010-09-22T10:31:12Z</time></trkpt><trkpt lat="52.054356" lon="-2.351161"><ele>324.10</ele><time>2010-09-22T10:31:23Z</time></trkpt><trkpt lat="52.054133" lon="-2.350984"><ele>323.14</ele><time>2010-09-22T10:31:46Z</time></trkpt><trkpt lat="52.053957" lon="-2.350802"><ele>321.70</ele><time>2010-09-22T10:32:05Z</time></trkpt><trkpt lat="52.053770" lon="-2.350636"><ele>319.30</ele><time>2010-09-22T10:32:25Z</time></trkpt><trkpt lat="52.053568" lon="-2.350509"><ele>316.89</ele><time>2010-09-22T10:32:46Z</time></trkpt><trkpt lat="52.053432" lon="-2.350380"><ele>314.97</ele><time>2010-09-22T10:33:04Z</time></trkpt><trkpt lat="52.053423" lon="-2.350247"><ele>310.16</ele><time>2010-09-22T10:33:20Z</time></trkpt><trkpt lat="52.053423" lon="-2.350084"><ele>307.76</ele><time>2010-09-22T10:33:36Z</time></trkpt><trkpt lat="52.053477" lon="-2.349941"><ele>303.43</ele><time>2010-09-22T10:33:52Z</time></trkpt><trkpt lat="52.053560" lon="-2.349781"><ele>300.55</ele><time>2010-09-22T10:34:10Z</time></trkpt><trkpt lat="52.053563" lon="-2.349769"><ele>300.55</ele><time>2010-09-22T10:34:11Z</time></trkpt><trkpt lat="52.053565" lon="-2.349447"><ele>294.30</ele><time>2010-09-22T10:34:34Z</time></trkpt><trkpt lat="52.053545" lon="-2.349303"><ele>293.34</ele><time>2010-09-22T10:34:50Z</time></trkpt><trkpt lat="52.053541" lon="-2.349269"><ele>292.86</ele><time>2010-09-22T10:34:53Z</time></trkpt><trkpt lat="52.053475" lon="-2.348979"><ele>289.49</ele><time>2010-09-22T10:35:12Z</time></trkpt><trkpt lat="52.053404" lon="-2.348725"><ele>288.53</ele><time>2010-09-22T10:35:30Z</time></trkpt><trkpt lat="52.053264" lon="-2.348343"><ele>287.09</ele><time>2010-09-22T10:35:55Z</time></trkpt><trkpt lat="52.053235" lon="-2.348231"><ele>287.57</ele><time>2010-09-22T10:36:14Z</time></trkpt><trkpt lat="52.053217" lon="-2.348224"><ele>286.61</ele><time>2010-09-22T10:36:34Z</time></trkpt><trkpt lat="52.053220" lon="-2.348227"><ele>286.61</ele><time>2010-09-22T10:37:04Z</time></trkpt><trkpt lat="52.053247" lon="-2.348273"><ele>286.61</ele><time>2010-09-22T10:37:26Z</time></trkpt><trkpt lat="52.053338" lon="-2.348366"><ele>286.13</ele><time>2010-09-22T10:37:42Z</time></trkpt><trkpt lat="52.053436" lon="-2.348333"><ele>284.21</ele><time>2010-09-22T10:38:02Z</time></trkpt><trkpt lat="52.053564" lon="-2.348501"><ele>282.77</ele><time>2010-09-22T10:38:23Z</time></trkpt><trkpt lat="52.053735" lon="-2.348738"><ele>279.88</ele><time>2010-09-22T10:38:46Z</time></trkpt><trkpt lat="52.053876" lon="-2.348883"><ele>279.40</ele><time>2010-09-22T10:39:03Z</time></trkpt><trkpt lat="52.054015" lon="-2.349003"><ele>277.48</ele><time>2010-09-22T10:39:22Z</time></trkpt><trkpt lat="52.054171" lon="-2.349084"><ele>277.96</ele><time>2010-09-22T10:39:39Z</time></trkpt><trkpt lat="52.054297" lon="-2.349144"><ele>278.92</ele><time>2010-09-22T10:39:54Z</time></trkpt><trkpt lat="52.054440" lon="-2.349197"><ele>277.00</ele><time>2010-09-22T10:40:09Z</time></trkpt><trkpt lat="52.054576" lon="-2.349267"><ele>275.56</ele><time>2010-09-22T10:40:25Z</time></trkpt><trkpt lat="52.054743" lon="-2.349314"><ele>273.15</ele><time>2010-09-22T10:40:43Z</time></trkpt><trkpt lat="52.054954" lon="-2.349358"><ele>271.23</ele><time>2010-09-22T10:41:03Z</time></trkpt><trkpt lat="52.055127" lon="-2.349373"><ele>271.71</ele><time>2010-09-22T10:41:20Z</time></trkpt><trkpt lat="52.055309" lon="-2.349350"><ele>269.79</ele><time>2010-09-22T10:41:37Z</time></trkpt><trkpt lat="52.055511" lon="-2.349309"><ele>269.31</ele><time>2010-09-22T10:41:56Z</time></trkpt><trkpt lat="52.055641" lon="-2.349331"><ele>268.83</ele><time>2010-09-22T10:42:12Z</time></trkpt><trkpt lat="52.055705" lon="-2.349396"><ele>268.83</ele><time>2010-09-22T10:42:23Z</time></trkpt><trkpt lat="52.055758" lon="-2.349621"><ele>266.90</ele><time>2010-09-22T10:42:41Z</time></trkpt><trkpt lat="52.055868" lon="-2.349895"><ele>264.02</ele><time>2010-09-22T10:43:00Z</time></trkpt><trkpt lat="52.055997" lon="-2.350030"><ele>263.06</ele><time>2010-09-22T10:43:17Z</time></trkpt><trkpt lat="52.056026" lon="-2.350066"><ele>262.58</ele><time>2010-09-22T10:43:31Z</time></trkpt><trkpt lat="52.056121" lon="-2.350127"><ele>263.06</ele><time>2010-09-22T10:43:44Z</time></trkpt><trkpt lat="52.056242" lon="-2.350214"><ele>264.98</ele><time>2010-09-22T10:44:01Z</time></trkpt><trkpt lat="52.056390" lon="-2.350310"><ele>266.42</ele><time>2010-09-22T10:44:17Z</time></trkpt><trkpt lat="52.056557" lon="-2.350374"><ele>265.94</ele><time>2010-09-22T10:44:33Z</time></trkpt><trkpt lat="52.056614" lon="-2.350365"><ele>264.98</ele><time>2010-09-22T10:44:38Z</time></trkpt><trkpt lat="52.056764" lon="-2.350202"><ele>265.46</ele><time>2010-09-22T10:44:54Z</time></trkpt><trkpt lat="52.056892" lon="-2.349946"><ele>265.94</ele><time>2010-09-22T10:45:12Z</time></trkpt><trkpt lat="52.056992" lon="-2.349742"><ele>266.90</ele><time>2010-09-22T10:45:27Z</time></trkpt><trkpt lat="52.057008" lon="-2.349716"><ele>267.38</ele><time>2010-09-22T10:45:29Z</time></trkpt><trkpt lat="52.057062" lon="-2.349516"><ele>266.42</ele><time>2010-09-22T10:45:43Z</time></trkpt><trkpt lat="52.057169" lon="-2.349309"><ele>267.38</ele><time>2010-09-22T10:45:58Z</time></trkpt><trkpt lat="52.057291" lon="-2.349078"><ele>268.35</ele><time>2010-09-22T10:46:16Z</time></trkpt><trkpt lat="52.057381" lon="-2.348875"><ele>268.83</ele><time>2010-09-22T10:46:31Z</time></trkpt><trkpt lat="52.057530" lon="-2.348687"><ele>267.86</ele><time>2010-09-22T10:46:49Z</time></trkpt><trkpt lat="52.057577" lon="-2.348647"><ele>269.31</ele><time>2010-09-22T10:47:14Z</time></trkpt><trkpt lat="52.057744" lon="-2.348534"><ele>270.27</ele><time>2010-09-22T10:47:31Z</time></trkpt><trkpt lat="52.057905" lon="-2.348431"><ele>269.79</ele><time>2010-09-22T10:47:47Z</time></trkpt><trkpt lat="52.058079" lon="-2.348327"><ele>269.79</ele><time>2010-09-22T10:48:03Z</time></trkpt><trkpt lat="52.058279" lon="-2.348210"><ele>270.27</ele><time>2010-09-22T10:48:23Z</time></trkpt><trkpt lat="52.058487" lon="-2.348121"><ele>271.23</ele><time>2010-09-22T10:48:42Z</time></trkpt><trkpt lat="52.058619" lon="-2.348132"><ele>271.23</ele><time>2010-09-22T10:48:59Z</time></trkpt><trkpt lat="52.058679" lon="-2.348127"><ele>268.83</ele><time>2010-09-22T10:49:19Z</time></trkpt><trkpt lat="52.058837" lon="-2.348165"><ele>265.46</ele><time>2010-09-22T10:49:38Z</time></trkpt><trkpt lat="52.058996" lon="-2.348185"><ele>265.46</ele><time>2010-09-22T10:49:56Z</time></trkpt><trkpt lat="52.059179" lon="-2.348116"><ele>266.90</ele><time>2010-09-22T10:50:16Z</time></trkpt><trkpt lat="52.059366" lon="-2.348033"><ele>264.02</ele><time>2010-09-22T10:50:39Z</time></trkpt><trkpt lat="52.059551" lon="-2.347882"><ele>258.25</ele><time>2010-09-22T10:50:56Z</time></trkpt><trkpt lat="52.059663" lon="-2.347636"><ele>257.29</ele><time>2010-09-22T10:51:14Z</time></trkpt><trkpt lat="52.059697" lon="-2.347559"><ele>257.29</ele><time>2010-09-22T10:51:26Z</time></trkpt><trkpt lat="52.059846" lon="-2.347369"><ele>257.29</ele><time>2010-09-22T10:51:43Z</time></trkpt><trkpt lat="52.059941" lon="-2.347267"><ele>260.17</ele><time>2010-09-22T10:51:58Z</time></trkpt><trkpt lat="52.060085" lon="-2.347235"><ele>261.14</ele><time>2010-09-22T10:52:15Z</time></trkpt><trkpt lat="52.060207" lon="-2.347199"><ele>261.62</ele><time>2010-09-22T10:52:30Z</time></trkpt><trkpt lat="52.060399" lon="-2.347137"><ele>260.17</ele><time>2010-09-22T10:52:49Z</time></trkpt><trkpt lat="52.060530" lon="-2.347143"><ele>255.37</ele><time>2010-09-22T10:53:06Z</time></trkpt><trkpt lat="52.060683" lon="-2.347158"><ele>254.41</ele><time>2010-09-22T10:53:23Z</time></trkpt><trkpt lat="52.060837" lon="-2.347165"><ele>247.68</ele><time>2010-09-22T10:53:38Z</time></trkpt><trkpt lat="52.061064" lon="-2.347078"><ele>242.39</ele><time>2010-09-22T10:53:58Z</time></trkpt><trkpt lat="52.061106" lon="-2.346953"><ele>239.02</ele><time>2010-09-22T10:54:13Z</time></trkpt><trkpt lat="52.061152" lon="-2.346995"><ele>239.51</ele><time>2010-09-22T10:54:20Z</time></trkpt><trkpt lat="52.061267" lon="-2.347119"><ele>243.83</ele><time>2010-09-22T10:54:34Z</time></trkpt><trkpt lat="52.061409" lon="-2.347146"><ele>243.35</ele><time>2010-09-22T10:54:48Z</time></trkpt><trkpt lat="52.061445" lon="-2.347163"><ele>243.35</ele><time>2010-09-22T10:54:52Z</time></trkpt><trkpt lat="52.061545" lon="-2.347152"><ele>243.35</ele><time>2010-09-22T10:55:06Z</time></trkpt><trkpt lat="52.061616" lon="-2.347127"><ele>241.43</ele><time>2010-09-22T10:55:14Z</time></trkpt><trkpt lat="52.061654" lon="-2.347034"><ele>239.02</ele><time>2010-09-22T10:55:26Z</time></trkpt><trkpt lat="52.061830" lon="-2.347046"><ele>238.06</ele><time>2010-09-22T10:55:46Z</time></trkpt><trkpt lat="52.061873" lon="-2.347055"><ele>239.99</ele><time>2010-09-22T10:55:51Z</time></trkpt><trkpt lat="52.061900" lon="-2.347061"><ele>240.47</ele><time>2010-09-22T10:55:55Z</time></trkpt><trkpt lat="52.061947" lon="-2.347056"><ele>239.51</ele><time>2010-09-22T10:56:00Z</time></trkpt><trkpt lat="52.062086" lon="-2.346941"><ele>239.51</ele><time>2010-09-22T10:56:16Z</time></trkpt><trkpt lat="52.062250" lon="-2.346865"><ele>235.18</ele><time>2010-09-22T10:56:29Z</time></trkpt><trkpt lat="52.062291" lon="-2.346824"><ele>234.70</ele><time>2010-09-22T10:56:33Z</time></trkpt><trkpt lat="52.062447" lon="-2.346609"><ele>233.74</ele><time>2010-09-22T10:56:50Z</time></trkpt><trkpt lat="52.062591" lon="-2.346426"><ele>235.66</ele><time>2010-09-22T10:57:08Z</time></trkpt><trkpt lat="52.062693" lon="-2.346246"><ele>238.06</ele><time>2010-09-22T10:57:25Z</time></trkpt><trkpt lat="52.062787" lon="-2.346086"><ele>241.43</ele><time>2010-09-22T10:57:41Z</time></trkpt><trkpt lat="52.062808" lon="-2.346044"><ele>241.91</ele><time>2010-09-22T10:57:45Z</time></trkpt><trkpt lat="52.062897" lon="-2.345852"><ele>242.87</ele><time>2010-09-22T10:57:59Z</time></trkpt><trkpt lat="52.063002" lon="-2.345762"><ele>253.93</ele><time>2010-09-22T10:58:17Z</time></trkpt><trkpt lat="52.063081" lon="-2.345536"><ele>252.48</ele><time>2010-09-22T10:58:31Z</time></trkpt><trkpt lat="52.063172" lon="-2.345261"><ele>250.56</ele><time>2010-09-22T10:58:50Z</time></trkpt><trkpt lat="52.063209" lon="-2.345064"><ele>248.64</ele><time>2010-09-22T10:59:06Z</time></trkpt><trkpt lat="52.063226" lon="-2.344972"><ele>246.72</ele><time>2010-09-22T10:59:21Z</time></trkpt><trkpt lat="52.063212" lon="-2.344754"><ele>242.87</ele><time>2010-09-22T10:59:42Z</time></trkpt><trkpt lat="52.063290" lon="-2.344527"><ele>238.06</ele><time>2010-09-22T11:00:06Z</time></trkpt><trkpt lat="52.063301" lon="-2.344520"><ele>238.06</ele><time>2010-09-22T11:00:08Z</time></trkpt><trkpt lat="52.063326" lon="-2.344487"><ele>237.58</ele><time>2010-09-22T11:00:13Z</time></trkpt><trkpt lat="52.063342" lon="-2.344169"><ele>239.51</ele><time>2010-09-22T11:00:30Z</time></trkpt><trkpt lat="52.063370" lon="-2.344016"><ele>239.02</ele><time>2010-09-22T11:00:39Z</time></trkpt><trkpt lat="52.063386" lon="-2.343892"><ele>240.95</ele><time>2010-09-22T11:00:52Z</time></trkpt><trkpt lat="52.063427" lon="-2.343746"><ele>240.95</ele><time>2010-09-22T11:01:05Z</time></trkpt><trkpt lat="52.063490" lon="-2.343577"><ele>240.95</ele><time>2010-09-22T11:01:22Z</time></trkpt><trkpt lat="52.063525" lon="-2.343374"><ele>241.91</ele><time>2010-09-22T11:01:35Z</time></trkpt><trkpt lat="52.063534" lon="-2.343325"><ele>241.91</ele><time>2010-09-22T11:01:38Z</time></trkpt><trkpt lat="52.063623" lon="-2.343201"><ele>241.43</ele><time>2010-09-22T11:01:51Z</time></trkpt><trkpt lat="52.063737" lon="-2.343065"><ele>242.87</ele><time>2010-09-22T11:02:07Z</time></trkpt><trkpt lat="52.063820" lon="-2.342954"><ele>249.12</ele><time>2010-09-22T11:02:22Z</time></trkpt><trkpt lat="52.063961" lon="-2.342732"><ele>247.68</ele><time>2010-09-22T11:02:39Z</time></trkpt><trkpt lat="52.064047" lon="-2.342679"><ele>251.52</ele><time>2010-09-22T11:02:51Z</time></trkpt><trkpt lat="52.064212" lon="-2.342617"><ele>256.33</ele><time>2010-09-22T11:03:09Z</time></trkpt><trkpt lat="52.064366" lon="-2.342497"><ele>257.29</ele><time>2010-09-22T11:03:24Z</time></trkpt><trkpt lat="52.064469" lon="-2.342423"><ele>262.58</ele><time>2010-09-22T11:03:37Z</time></trkpt><trkpt lat="52.064663" lon="-2.342333"><ele>264.98</ele><time>2010-09-22T11:03:58Z</time></trkpt><trkpt lat="52.064757" lon="-2.342287"><ele>264.02</ele><time>2010-09-22T11:04:12Z</time></trkpt><trkpt lat="52.064807" lon="-2.342237"><ele>261.62</ele><time>2010-09-22T11:04:28Z</time></trkpt><trkpt lat="52.064989" lon="-2.342043"><ele>256.33</ele><time>2010-09-22T11:04:46Z</time></trkpt><trkpt lat="52.065139" lon="-2.341836"><ele>254.89</ele><time>2010-09-22T11:05:03Z</time></trkpt><trkpt lat="52.065285" lon="-2.341625"><ele>253.93</ele><time>2010-09-22T11:05:20Z</time></trkpt><trkpt lat="52.065423" lon="-2.341427"><ele>253.44</ele><time>2010-09-22T11:05:37Z</time></trkpt><trkpt lat="52.065555" lon="-2.341273"><ele>252.96</ele><time>2010-09-22T11:05:54Z</time></trkpt><trkpt lat="52.065600" lon="-2.341237"><ele>254.41</ele><time>2010-09-22T11:06:07Z</time></trkpt><trkpt lat="52.065696" lon="-2.341178"><ele>252.96</ele><time>2010-09-22T11:06:21Z</time></trkpt><trkpt lat="52.065795" lon="-2.341116"><ele>253.93</ele><time>2010-09-22T11:06:30Z</time></trkpt><trkpt lat="52.065975" lon="-2.341036"><ele>257.77</ele><time>2010-09-22T11:06:49Z</time></trkpt><trkpt lat="52.066177" lon="-2.340980"><ele>257.77</ele><time>2010-09-22T11:07:07Z</time></trkpt><trkpt lat="52.066332" lon="-2.340879"><ele>258.25</ele><time>2010-09-22T11:07:22Z</time></trkpt><trkpt lat="52.066457" lon="-2.340781"><ele>256.33</ele><time>2010-09-22T11:07:37Z</time></trkpt><trkpt lat="52.066510" lon="-2.340748"><ele>255.85</ele><time>2010-09-22T11:07:42Z</time></trkpt><trkpt lat="52.066689" lon="-2.340682"><ele>258.25</ele><time>2010-09-22T11:08:01Z</time></trkpt><trkpt lat="52.066746" lon="-2.340660"><ele>259.69</ele><time>2010-09-22T11:08:14Z</time></trkpt><trkpt lat="52.066886" lon="-2.340592"><ele>259.21</ele><time>2010-09-22T11:08:30Z</time></trkpt><trkpt lat="52.067005" lon="-2.340553"><ele>261.14</ele><time>2010-09-22T11:08:44Z</time></trkpt><trkpt lat="52.067162" lon="-2.340546"><ele>262.58</ele><time>2010-09-22T11:09:01Z</time></trkpt><trkpt lat="52.067309" lon="-2.340542"><ele>264.02</ele><time>2010-09-22T11:09:16Z</time></trkpt><trkpt lat="52.067478" lon="-2.340533"><ele>264.98</ele><time>2010-09-22T11:09:33Z</time></trkpt><trkpt lat="52.067631" lon="-2.340561"><ele>268.83</ele><time>2010-09-22T11:09:49Z</time></trkpt><trkpt lat="52.067792" lon="-2.340606"><ele>271.23</ele><time>2010-09-22T11:10:05Z</time></trkpt><trkpt lat="52.067999" lon="-2.340637"><ele>272.19</ele><time>2010-09-22T11:10:24Z</time></trkpt><trkpt lat="52.068178" lon="-2.340649"><ele>273.15</ele><time>2010-09-22T11:10:41Z</time></trkpt><trkpt lat="52.068378" lon="-2.340636"><ele>270.75</ele><time>2010-09-22T11:10:59Z</time></trkpt><trkpt lat="52.068494" lon="-2.340659"><ele>269.79</ele><time>2010-09-22T11:11:15Z</time></trkpt><trkpt lat="52.068646" lon="-2.340678"><ele>273.15</ele><time>2010-09-22T11:11:32Z</time></trkpt><trkpt lat="52.068838" lon="-2.340652"><ele>276.52</ele><time>2010-09-22T11:11:50Z</time></trkpt><trkpt lat="52.069067" lon="-2.340693"><ele>279.88</ele><time>2010-09-22T11:12:10Z</time></trkpt><trkpt lat="52.069265" lon="-2.340758"><ele>282.28</ele><time>2010-09-22T11:12:28Z</time></trkpt><trkpt lat="52.069429" lon="-2.340776"><ele>283.25</ele><time>2010-09-22T11:12:44Z</time></trkpt><trkpt lat="52.069516" lon="-2.340820"><ele>282.77</ele><time>2010-09-22T11:12:55Z</time></trkpt><trkpt lat="52.069693" lon="-2.340872"><ele>276.52</ele><time>2010-09-22T11:13:11Z</time></trkpt><trkpt lat="52.069860" lon="-2.340855"><ele>271.23</ele><time>2010-09-22T11:13:25Z</time></trkpt><trkpt lat="52.069990" lon="-2.340867"><ele>271.71</ele><time>2010-09-22T11:13:36Z</time></trkpt><trkpt lat="52.070114" lon="-2.340881"><ele>275.07</ele><time>2010-09-22T11:13:48Z</time></trkpt><trkpt lat="52.070267" lon="-2.340945"><ele>282.28</ele><time>2010-09-22T11:14:02Z</time></trkpt><trkpt lat="52.070321" lon="-2.340982"><ele>284.69</ele><time>2010-09-22T11:14:07Z</time></trkpt><trkpt lat="52.070520" lon="-2.340996"><ele>285.65</ele><time>2010-09-22T11:14:23Z</time></trkpt><trkpt lat="52.070742" lon="-2.341041"><ele>287.57</ele><time>2010-09-22T11:14:43Z</time></trkpt><trkpt lat="52.070908" lon="-2.341030"><ele>281.80</ele><time>2010-09-22T11:15:00Z</time></trkpt><trkpt lat="52.071037" lon="-2.341024"><ele>276.52</ele><time>2010-09-22T11:15:16Z</time></trkpt><trkpt lat="52.071189" lon="-2.341032"><ele>276.04</ele><time>2010-09-22T11:15:30Z</time></trkpt><trkpt lat="52.071299" lon="-2.341070"><ele>275.56</ele><time>2010-09-22T11:15:45Z</time></trkpt><trkpt lat="52.071487" lon="-2.341137"><ele>275.07</ele><time>2010-09-22T11:16:03Z</time></trkpt><trkpt lat="52.071664" lon="-2.341152"><ele>272.67</ele><time>2010-09-22T11:16:18Z</time></trkpt><trkpt lat="52.071855" lon="-2.341221"><ele>274.59</ele><time>2010-09-22T11:16:38Z</time></trkpt><trkpt lat="52.072005" lon="-2.341308"><ele>279.88</ele><time>2010-09-22T11:16:54Z</time></trkpt><trkpt lat="52.072051" lon="-2.341347"><ele>281.32</ele><time>2010-09-22T11:16:59Z</time></trkpt><trkpt lat="52.072238" lon="-2.341382"><ele>289.01</ele><time>2010-09-22T11:17:15Z</time></trkpt><trkpt lat="52.072412" lon="-2.341437"><ele>295.26</ele><time>2010-09-22T11:17:32Z</time></trkpt><trkpt lat="52.072447" lon="-2.341443"><ele>295.74</ele><time>2010-09-22T11:17:50Z</time></trkpt><trkpt lat="52.072462" lon="-2.341436"><ele>295.26</ele><time>2010-09-22T11:17:59Z</time></trkpt><trkpt lat="52.072634" lon="-2.341515"><ele>292.86</ele><time>2010-09-22T11:18:18Z</time></trkpt><trkpt lat="52.072780" lon="-2.341599"><ele>293.34</ele><time>2010-09-22T11:18:36Z</time></trkpt><trkpt lat="52.072971" lon="-2.341657"><ele>287.09</ele><time>2010-09-22T11:18:54Z</time></trkpt><trkpt lat="52.073202" lon="-2.341771"><ele>285.17</ele><time>2010-09-22T11:19:15Z</time></trkpt><trkpt lat="52.073441" lon="-2.341853"><ele>287.09</ele><time>2010-09-22T11:19:36Z</time></trkpt><trkpt lat="52.073651" lon="-2.341919"><ele>297.18</ele><time>2010-09-22T11:19:55Z</time></trkpt><trkpt lat="52.073848" lon="-2.342095"><ele>313.53</ele><time>2010-09-22T11:20:15Z</time></trkpt><trkpt lat="52.073977" lon="-2.342154"><ele>318.81</ele><time>2010-09-22T11:20:30Z</time></trkpt><trkpt lat="52.074228" lon="-2.342252"><ele>321.70</ele><time>2010-09-22T11:20:50Z</time></trkpt><trkpt lat="52.074452" lon="-2.342299"><ele>322.66</ele><time>2010-09-22T11:21:08Z</time></trkpt><trkpt lat="52.074662" lon="-2.342403"><ele>316.89</ele><time>2010-09-22T11:21:27Z</time></trkpt><trkpt lat="52.074880" lon="-2.342514"><ele>308.24</ele><time>2010-09-22T11:21:46Z</time></trkpt><trkpt lat="52.075081" lon="-2.342586"><ele>302.47</ele><time>2010-09-22T11:22:04Z</time></trkpt><trkpt lat="52.075284" lon="-2.342621"><ele>297.67</ele><time>2010-09-22T11:22:22Z</time></trkpt><trkpt lat="52.075481" lon="-2.342701"><ele>299.11</ele><time>2010-09-22T11:22:40Z</time></trkpt><trkpt lat="52.075663" lon="-2.342761"><ele>295.74</ele><time>2010-09-22T11:22:59Z</time></trkpt><trkpt lat="52.075779" lon="-2.342818"><ele>291.90</ele><time>2010-09-22T11:23:14Z</time></trkpt><trkpt lat="52.075991" lon="-2.342930"><ele>290.46</ele><time>2010-09-22T11:23:34Z</time></trkpt><trkpt lat="52.076044" lon="-2.342942"><ele>289.97</ele><time>2010-09-22T11:23:39Z</time></trkpt><trkpt lat="52.076095" lon="-2.342844"><ele>286.61</ele><time>2010-09-22T11:23:55Z</time></trkpt><trkpt lat="52.076104" lon="-2.342835"><ele>286.61</ele><time>2010-09-22T11:24:18Z</time></trkpt></trkseg></trk></gpx>